createdAt,value
2023-05-17T00:01:04.110Z,8.53
2023-05-17T00:04:07.956Z,8.52
2023-05-17T00:07:10.502Z,8.50
2023-05-17T00:10:12.678Z,8.52
2023-05-17T00:13:14.283Z,8.48
2023-05-17T00:16:16.824Z,8.47
2023-05-17T00:19:19.112Z,8.44
2023-05-17T00:22:20.907Z,8.40
2023-05-17T00:25:22.992Z,8.39
2023-05-17T00:28:25.047Z,8.39
2023-05-17T00:31:27.104Z,8.37
2023-05-17T00:34:28.854Z,8.36
2023-05-17T00:37:31.567Z,8.35
2023-05-17T00:40:34.409Z,8.30
2023-05-17T00:43:36.125Z,8.30
2023-05-17T00:46:38.184Z,8.27
2023-05-17T00:49:40.801Z,8.24
2023-05-17T00:52:43.033Z,8.22
2023-05-17T00:55:45.536Z,8.19
2023-05-17T00:58:48.408Z,8.16
2023-05-17T01:01:51.685Z,8.12
2023-05-17T01:04:54.342Z,8.09
2023-05-17T01:07:56.566Z,8.08
2023-05-17T01:11:23.264Z,8.06
2023-05-17T01:14:34.447Z,8.03
2023-05-17T01:17:36.523Z,8.00
2023-05-17T01:20:42.009Z,7.98
2023-05-17T01:24:17.279Z,7.95
2023-05-17T01:27:22.372Z,7.95
2023-05-17T01:30:26.293Z,7.93
2023-05-17T01:33:29.688Z,7.90
2023-05-17T01:36:34.191Z,7.89
2023-05-17T01:39:37.307Z,7.84
2023-05-17T01:42:43.117Z,7.81
2023-05-17T01:46:10.778Z,7.74
2023-05-17T01:49:18.488Z,7.77
2023-05-17T01:52:35.882Z,7.74
2023-05-17T01:55:49.709Z,7.72
2023-05-17T01:58:52.909Z,7.69
2023-05-17T02:02:04.069Z,7.66
2023-05-17T02:05:07.286Z,7.64
2023-05-17T02:08:09.986Z,7.63
2023-05-17T02:11:14.598Z,7.62
2023-05-17T02:14:17.398Z,7.58
2023-05-17T02:17:19.559Z,7.57
2023-05-17T02:20:21.822Z,7.52
2023-05-17T02:23:25.120Z,7.48
2023-05-17T02:26:27.843Z,7.46
2023-05-17T02:29:31.797Z,7.43
2023-05-17T02:32:35.103Z,7.40
2023-05-17T02:35:37.207Z,7.37
2023-05-17T02:38:39.485Z,7.37
2023-05-17T02:41:41.651Z,7.33
2023-05-17T02:44:43.302Z,7.27
2023-05-17T02:47:45.499Z,7.26
2023-05-17T02:50:47.628Z,7.26
2023-05-17T02:53:49.715Z,7.25
2023-05-17T02:56:52.203Z,7.20
2023-05-17T02:59:53.886Z,7.21
2023-05-17T03:02:56.283Z,7.14
2023-05-17T03:06:05.362Z,7.17
2023-05-17T03:09:08.187Z,7.14
2023-05-17T03:12:10.124Z,7.12
2023-05-17T03:15:12.291Z,7.09
2023-05-17T03:18:14.896Z,7.06
2023-05-17T03:21:18.138Z,7.05
2023-05-17T03:24:20.032Z,7.03
2023-05-17T03:27:23.524Z,6.99
2023-05-17T03:30:25.200Z,6.99
2023-05-17T03:33:27.486Z,6.98
2023-05-17T03:36:29.565Z,6.95
2023-05-17T03:39:31.708Z,6.94
2023-05-17T03:42:33.933Z,6.92
2023-05-17T03:45:35.858Z,6.91
2023-05-17T03:48:37.685Z,6.90
2023-05-17T03:51:40.698Z,6.88
2023-05-17T03:54:43.180Z,6.87
2023-05-17T03:57:45.988Z,6.85
2023-05-17T04:00:48.074Z,6.82
2023-05-17T04:03:52.925Z,6.80
2023-05-17T04:06:56.113Z,6.82
2023-05-17T04:09:59.579Z,6.81
2023-05-17T04:13:03.625Z,6.81
2023-05-17T04:16:07.390Z,6.81
2023-05-17T04:19:11.550Z,6.80
2023-05-17T04:22:14.379Z,6.79
2023-05-17T04:25:19.118Z,6.79
2023-05-17T04:28:27.060Z,6.79
2023-05-17T04:31:31.151Z,6.79
2023-05-17T04:34:35.393Z,6.79
2023-05-17T04:37:42.065Z,6.81
2023-05-17T04:41:05.372Z,6.82
2023-05-17T04:44:12.898Z,6.86
2023-05-17T04:47:18.910Z,6.87
2023-05-17T04:50:23.376Z,6.89
2023-05-17T04:53:26.845Z,6.91
2023-05-17T04:56:31.972Z,6.89
2023-05-17T04:59:46.174Z,6.86
2023-05-17T05:02:52.320Z,6.81
2023-05-17T05:05:55.882Z,6.85
2023-05-17T05:09:04.267Z,6.88
2023-05-17T05:12:09.654Z,6.87
2023-05-17T05:15:14.763Z,6.88
2023-05-17T05:18:24.807Z,6.90
2023-05-17T05:21:27.930Z,6.96
2023-05-17T05:24:35.217Z,6.96
2023-05-17T05:27:40.753Z,6.98
2023-05-17T05:30:47.368Z,7.00
2023-05-17T05:33:52.423Z,7.05
2023-05-17T05:36:56.664Z,7.05
2023-05-17T05:39:59.429Z,7.05
2023-05-17T05:43:08.138Z,7.06
2023-05-17T05:46:12.135Z,7.09
2023-05-17T05:49:17.516Z,7.05
2023-05-17T05:52:21.070Z,7.08
2023-05-17T05:55:23.314Z,7.13
2023-05-17T05:58:28.676Z,7.13
2023-05-17T06:01:31.353Z,7.15
2023-05-17T06:04:44.443Z,7.23
2023-05-17T06:07:48.267Z,7.25
2023-05-17T06:10:52.979Z,7.27
2023-05-17T06:13:58.779Z,7.30
2023-05-17T06:17:02.277Z,7.28
2023-05-17T06:20:09.445Z,7.32
2023-05-17T06:23:12.980Z,7.34
2023-05-17T06:26:19.246Z,7.33
2023-05-17T06:29:20.956Z,7.40
2023-05-17T06:32:26.018Z,7.39
2023-05-17T06:35:37.474Z,7.47
2023-05-17T06:38:47.607Z,7.52
2023-05-17T06:41:54.733Z,7.54
2023-05-17T06:44:57.348Z,7.62
2023-05-17T06:48:02.009Z,7.66
2023-05-17T06:51:06.678Z,7.72
2023-05-17T06:54:11.470Z,7.79
2023-05-17T06:57:18.529Z,7.84
2023-05-17T07:00:23.623Z,7.91
2023-05-17T07:03:33.167Z,7.94
2023-05-17T07:06:40.094Z,8.01
2023-05-17T07:09:44.212Z,8.10
2023-05-17T07:12:56.420Z,8.16
2023-05-17T07:16:00.876Z,8.23
2023-05-17T07:19:05.416Z,8.30
2023-05-17T07:22:08.189Z,8.39
2023-05-17T07:25:11.948Z,8.47
2023-05-17T07:28:14.561Z,8.54
2023-05-17T07:34:37.775Z,8.74
2023-05-17T07:37:43.280Z,8.77
2023-05-17T07:40:47.609Z,8.83
2023-05-17T07:43:55.408Z,8.87
2023-05-17T07:47:07.692Z,8.93
2023-05-17T07:50:14.556Z,8.96
2023-05-17T07:53:18.333Z,9.07
2023-05-17T07:56:22.364Z,9.11
2023-05-17T07:59:29.000Z,9.13
2023-05-17T08:02:42.075Z,9.19
2023-05-17T08:05:49.999Z,9.22
2023-05-17T08:08:53.127Z,9.31
2023-05-17T08:11:56.379Z,9.38
2023-05-17T08:15:00.957Z,9.44
2023-05-17T08:18:04.710Z,9.52
2023-05-17T08:21:13.832Z,9.58
2023-05-17T08:24:18.859Z,9.63
2023-05-17T08:27:21.945Z,9.64
2023-05-17T08:30:30.237Z,9.68
2023-05-17T08:33:34.142Z,9.65
2023-05-17T08:36:47.781Z,9.63
2023-05-17T08:39:54.028Z,9.62
2023-05-17T08:42:59.508Z,9.68
2023-05-17T08:46:04.265Z,9.74
2023-05-17T08:49:08.443Z,9.82
2023-05-17T08:52:16.808Z,9.86
2023-05-17T08:55:21.660Z,9.93
2023-05-17T08:58:41.059Z,10.01
2023-05-17T09:01:52.986Z,10.03
2023-05-17T09:04:58.691Z,10.03
2023-05-17T09:08:03.387Z,10.00
2023-05-17T09:11:13.951Z,10.00
2023-05-17T09:14:19.219Z,10.03
2023-05-17T09:17:24.288Z,10.02
2023-05-17T09:20:39.216Z,10.04
2023-05-17T09:23:43.615Z,10.15
2023-05-17T09:26:49.463Z,10.20
2023-05-17T09:29:54.508Z,10.29
2023-05-17T09:32:57.833Z,10.39
2023-05-17T09:36:03.078Z,10.48
2023-05-17T09:39:08.224Z,10.52
2023-05-17T09:42:13.504Z,10.56
2023-05-17T09:45:23.640Z,10.61
2023-05-17T09:48:29.168Z,10.70
2023-05-17T09:51:51.767Z,10.81
2023-05-17T09:55:00.883Z,10.88
2023-05-17T09:58:04.942Z,10.91
2023-05-17T10:01:10.300Z,10.91
2023-05-17T10:04:14.461Z,10.92
2023-05-17T10:07:23.665Z,10.92
2023-05-17T10:10:29.573Z,10.99
2023-05-17T10:13:49.981Z,11.01
2023-05-17T10:16:54.591Z,11.03
2023-05-17T10:20:01.096Z,11.03
2023-05-17T10:23:18.843Z,11.06
2023-05-17T10:26:22.086Z,11.07
2023-05-17T10:29:26.177Z,11.08
2023-05-17T10:32:29.080Z,11.17
2023-05-17T10:35:33.279Z,11.29
2023-05-17T10:38:42.511Z,11.43
2023-05-17T10:41:57.921Z,11.58
2023-05-17T10:45:09.757Z,11.74
2023-05-17T10:48:11.972Z,11.95
2023-05-17T10:51:18.992Z,12.10
2023-05-17T10:54:36.506Z,12.26
2023-05-17T10:57:51.129Z,12.32
2023-05-17T11:00:56.946Z,12.34
2023-05-17T11:04:00.194Z,12.29
2023-05-17T11:07:41.359Z,12.28
2023-05-17T11:11:12.464Z,12.22
2023-05-17T11:14:19.697Z,12.17
2023-05-17T11:17:32.225Z,12.09
2023-05-17T11:20:44.333Z,12.20
2023-05-17T11:23:49.302Z,12.25
2023-05-17T11:26:54.821Z,12.31
2023-05-17T11:30:10.830Z,12.47
2023-05-17T11:33:29.848Z,12.60
2023-05-17T11:36:58.878Z,12.71
2023-05-17T11:40:17.330Z,12.67
2023-05-17T11:43:23.440Z,12.70
2023-05-17T11:46:28.370Z,12.74
2023-05-17T11:49:36.159Z,12.73
2023-05-17T11:52:42.428Z,12.76
2023-05-17T11:55:52.868Z,12.77
2023-05-17T11:58:57.639Z,12.98
2023-05-17T12:01:59.867Z,13.07
2023-05-17T12:05:06.494Z,13.18
2023-05-17T12:08:10.577Z,13.19
2023-05-17T12:11:16.391Z,13.17
2023-05-17T12:14:20.983Z,13.13
2023-05-17T12:17:36.033Z,13.11
2023-05-17T12:20:41.279Z,13.19
2023-05-17T12:23:50.970Z,13.20
2023-05-17T12:26:53.716Z,13.17
2023-05-17T12:29:57.614Z,13.19
2023-05-17T12:33:00.317Z,13.25
2023-05-17T12:36:04.096Z,13.31
2023-05-17T12:39:12.854Z,13.38
2023-05-17T12:42:18.216Z,13.44
2023-05-17T12:45:22.232Z,13.53
2023-05-17T12:48:48.291Z,13.68
2023-05-17T12:51:50.661Z,13.71
2023-05-17T12:54:54.599Z,13.72
2023-05-17T12:57:57.707Z,13.65
2023-05-17T13:01:05.191Z,13.61
2023-05-17T13:04:09.682Z,13.64
2023-05-17T13:07:11.403Z,13.75
2023-05-17T13:10:23.185Z,13.91
2023-05-17T13:13:25.369Z,14.03
2023-05-17T13:16:30.628Z,14.14
2023-05-17T13:19:33.399Z,14.16
2023-05-17T13:22:35.770Z,14.08
2023-05-17T13:25:37.411Z,14.10
2023-05-17T13:28:44.067Z,14.18
2023-05-17T13:31:48.308Z,14.24
2023-05-17T13:34:54.187Z,14.33
2023-05-17T13:38:01.215Z,14.21
2023-05-17T13:41:09.395Z,14.19
2023-05-17T13:44:13.924Z,14.19
2023-05-17T13:47:18.019Z,14.19
2023-05-17T13:50:24.844Z,14.22
2023-05-17T13:53:29.044Z,14.29
2023-05-17T13:56:35.605Z,14.21
2023-05-17T13:59:40.219Z,14.13
2023-05-17T14:02:43.248Z,14.13
2023-05-17T14:05:52.429Z,14.14
2023-05-17T14:08:58.820Z,14.16
2023-05-17T14:12:01.902Z,14.12
2023-05-17T14:15:08.956Z,14.05
2023-05-17T14:18:13.529Z,13.98
2023-05-17T14:21:17.539Z,13.92
2023-05-17T14:24:22.573Z,13.86
2023-05-17T14:27:24.500Z,13.78
2023-05-17T14:30:28.518Z,13.77
2023-05-17T14:33:33.740Z,13.79
2023-05-17T14:36:38.179Z,13.81
2023-05-17T14:39:43.937Z,13.82
2023-05-17T14:43:04.484Z,13.80
2023-05-17T14:46:07.440Z,13.87
2023-05-17T14:49:13.288Z,13.83
2023-05-17T14:52:19.172Z,13.82
2023-05-17T14:55:22.764Z,13.84
2023-05-17T14:58:36.950Z,13.87
2023-05-17T15:01:41.242Z,13.92
2023-05-17T15:04:47.249Z,14.12
2023-05-17T15:07:51.782Z,14.34
2023-05-17T15:10:55.557Z,14.49
2023-05-17T15:13:58.610Z,14.59
2023-05-17T15:17:03.984Z,14.64
2023-05-17T15:20:11.022Z,14.71
2023-05-17T15:23:13.752Z,14.83
2023-05-17T15:26:23.399Z,14.92
2023-05-17T15:29:26.728Z,14.93
2023-05-17T15:32:34.161Z,14.81
2023-05-17T15:35:47.649Z,14.73
2023-05-17T15:38:50.075Z,14.72
2023-05-17T15:41:55.194Z,14.57
2023-05-17T15:45:01.361Z,14.45
2023-05-17T15:48:05.531Z,14.26
2023-05-17T15:51:11.547Z,14.11
2023-05-17T15:54:15.438Z,14.03
2023-05-17T15:57:19.603Z,13.87
2023-05-17T16:00:24.264Z,13.72
2023-05-17T16:03:31.812Z,13.60
2023-05-17T16:06:39.214Z,13.50
2023-05-17T16:09:43.864Z,13.46
2023-05-17T16:12:50.355Z,13.41
2023-05-17T16:15:59.840Z,13.33
2023-05-17T16:19:09.247Z,13.31
2023-05-17T16:22:15.224Z,13.31
2023-05-17T16:25:29.037Z,13.23
2023-05-17T16:28:33.063Z,13.17
2023-05-17T16:31:36.471Z,13.09
2023-05-17T16:34:41.870Z,12.96
2023-05-17T16:37:46.498Z,12.89
2023-05-17T16:40:50.616Z,12.77
2023-05-17T16:44:01.451Z,12.69
2023-05-17T16:47:04.869Z,12.62
2023-05-17T16:50:09.456Z,12.60
2023-05-17T16:53:13.986Z,12.47
2023-05-17T16:56:18.655Z,12.45
2023-05-17T16:59:21.976Z,12.42
2023-05-17T17:02:26.584Z,12.38
2023-05-17T17:05:37.233Z,12.29
2023-05-17T17:08:41.072Z,12.20
2023-05-17T17:11:46.694Z,12.13
2023-05-17T17:14:53.702Z,12.06
2023-05-17T17:18:01.573Z,12.02
2023-05-17T17:21:07.960Z,11.95
2023-05-17T17:24:13.745Z,11.83
2023-05-17T17:27:18.200Z,11.82
2023-05-17T17:30:20.132Z,11.77
2023-05-17T17:33:24.490Z,11.71
2023-05-17T17:36:28.467Z,11.66
2023-05-17T17:39:30.936Z,11.65
2023-05-17T17:42:36.073Z,11.63
2023-05-17T17:45:39.873Z,11.59
2023-05-17T17:48:48.310Z,11.56
2023-05-17T17:51:53.888Z,11.50
2023-05-17T17:54:56.843Z,11.40
2023-05-17T17:58:01.326Z,11.33
2023-05-17T18:01:05.028Z,11.28
2023-05-17T18:04:13.626Z,11.22
2023-05-17T18:07:19.819Z,11.17
2023-05-17T18:10:24.866Z,11.09
2023-05-17T18:13:32.297Z,11.04
2023-05-17T18:16:35.424Z,11.00
2023-05-17T18:19:39.467Z,10.93
2023-05-17T18:22:42.070Z,10.89
2023-05-17T18:25:49.302Z,10.82
2023-05-17T18:28:58.023Z,10.77
2023-05-17T18:32:03.650Z,10.70
2023-05-17T18:35:07.291Z,10.65
2023-05-17T18:38:10.069Z,10.59
2023-05-17T18:41:14.628Z,10.52
2023-05-17T18:44:20.124Z,10.49
2023-05-17T18:47:28.290Z,10.43
2023-05-17T18:50:31.425Z,10.40
2023-05-17T18:53:36.285Z,10.38
2023-05-17T18:56:39.626Z,10.35
2023-05-17T18:59:43.975Z,10.29
2023-05-17T19:02:48.853Z,10.28
2023-05-17T19:05:53.887Z,10.26
2023-05-17T19:09:02.750Z,10.22
2023-05-17T19:12:13.095Z,10.17
2023-05-17T19:15:16.774Z,10.13
2023-05-17T19:18:24.233Z,10.06
2023-05-17T19:21:32.213Z,9.99
2023-05-17T19:24:35.541Z,9.89
2023-05-17T19:27:38.090Z,9.83
2023-05-17T19:30:42.069Z,9.74
2023-05-17T19:33:47.348Z,9.67
2023-05-17T19:36:53.733Z,9.63
2023-05-17T19:39:56.540Z,9.56
2023-05-17T19:42:59.028Z,9.48
2023-05-17T19:46:02.098Z,9.41
2023-05-17T19:49:07.359Z,9.36
2023-05-17T19:52:12.007Z,9.31
2023-05-17T19:55:26.249Z,9.26
2023-05-17T19:58:30.635Z,9.20
2023-05-17T20:04:48.724Z,9.07
2023-05-17T20:07:59.612Z,9.00
2023-05-17T20:11:05.143Z,8.93
2023-05-17T20:14:14.066Z,8.90
2023-05-17T20:17:18.338Z,8.83
2023-05-17T20:20:25.254Z,8.74
2023-05-17T20:23:31.075Z,8.70
2023-05-17T20:26:42.235Z,8.61
2023-05-17T20:29:46.998Z,8.56
2023-05-17T20:32:50.850Z,8.49
2023-05-17T20:35:56.496Z,8.43
2023-05-17T20:38:59.902Z,8.37
2023-05-17T20:42:05.433Z,8.30
2023-05-17T20:45:07.718Z,8.21
2023-05-17T20:48:10.725Z,8.14
2023-05-17T20:51:18.261Z,8.07
2023-05-17T20:54:21.706Z,8.00
2023-05-17T20:57:26.069Z,7.95
2023-05-17T21:00:30.410Z,7.89
2023-05-17T21:03:37.121Z,7.84
2023-05-17T21:06:52.330Z,7.78
2023-05-17T21:10:00.058Z,7.73
2023-05-17T21:13:07.575Z,7.68
2023-05-17T21:16:25.558Z,7.62
2023-05-17T21:19:29.975Z,7.56
2023-05-17T21:22:32.304Z,7.49
2023-05-17T21:25:36.451Z,7.41
2023-05-17T21:28:43.592Z,7.38
2023-05-17T21:31:46.796Z,7.32
2023-05-17T21:34:48.920Z,7.25
2023-05-17T21:37:54.279Z,7.23
2023-05-17T21:40:57.202Z,7.15
2023-05-17T21:44:01.232Z,7.11
2023-05-17T21:47:15.439Z,7.07
2023-05-17T21:50:18.990Z,7.01
2023-05-17T21:53:26.817Z,6.97
2023-05-17T21:56:35.167Z,6.91
2023-05-17T21:59:39.804Z,6.88
2023-05-17T22:02:47.661Z,6.82
2023-05-17T22:05:55.779Z,6.78
2023-05-17T22:09:02.773Z,6.73
2023-05-17T22:12:13.868Z,6.66
2023-05-17T22:15:17.960Z,6.62
2023-05-17T22:18:22.290Z,6.59
2023-05-17T22:21:26.024Z,6.54
2023-05-17T22:24:28.623Z,6.51
2023-05-17T22:27:33.232Z,6.45
2023-05-17T22:30:38.447Z,6.43
2023-05-17T22:33:41.508Z,6.38
2023-05-17T22:36:46.916Z,6.35
2023-05-17T22:39:51.268Z,6.29
2023-05-17T22:42:54.236Z,6.26
2023-05-17T22:46:00.138Z,6.22
2023-05-17T22:49:04.003Z,6.17
2023-05-17T22:52:09.058Z,6.15
2023-05-17T22:55:13.757Z,6.11
2023-05-17T22:58:19.286Z,6.07
2023-05-17T23:01:23.368Z,6.02
2023-05-17T23:04:30.628Z,5.97
2023-05-17T23:07:38.877Z,5.96
2023-05-17T23:10:46.037Z,5.93
2023-05-17T23:13:50.701Z,5.88
2023-05-17T23:16:56.756Z,5.83
2023-05-17T23:20:11.792Z,5.82
2023-05-17T23:23:17.859Z,5.79
2023-05-17T23:26:27.056Z,5.76
2023-05-17T23:29:35.648Z,5.74
2023-05-17T23:32:38.295Z,5.72
2023-05-17T23:35:42.532Z,5.70
2023-05-17T23:38:48.438Z,5.68
2023-05-17T23:41:51.799Z,5.66
2023-05-17T23:44:54.827Z,5.64
2023-05-17T23:48:01.147Z,5.63
2023-05-17T23:51:04.817Z,5.60
2023-05-17T23:54:12.440Z,5.57
2023-05-17T23:57:14.751Z,5.54
